sensor_id;sensor_type;location;lat;lon;timestamp;temperature;humidity
42085;DHT22;27746;52.228;20.890;2022-09-09T00:00:47;13.40;99.90
42085;DHT22;27746;52.228;20.890;2022-09-09T00:03:17;13.30;99.90
42085;DHT22;27746;52.228;20.890;2022-09-09T00:05:54;13.30;99.90
42085;DHT22;27746;52.228;20.890;2022-09-09T00:08:33;13.30;99.90
42085;DHT22;27746;52.228;20.890;2022-09-09T00:11:05;13.20;99.90
42085;DHT22;27746;52.228;20.890;2022-09-09T00:13:34;13.10;99.90
42085;DHT22;27746;52.228;20.890;2022-09-09T00:16:07;13.00;99.90
42085;DHT22;27746;52.228;20.890;2022-09-09T00:18:42;12.90;99.90
42085;DHT22;27746;52.228;20.890;2022-09-09T00:21:13;12.90;99.90
42085;DHT22;27746;52.228;20.890;2022-09-09T00:23:45;12.80;99.90
42085;DHT22;27746;52.228;20.890;2022-09-09T00:26:21;12.80;99.90
42085;DHT22;27746;52.228;20.890;2022-09-09T00:28:55;12.70;99.90
42085;DHT22;27746;52.228;20.890;2022-09-09T00:31:27;12.60;99.90
42085;DHT22;27746;52.228;20.890;2022-09-09T00:34:00;12.60;99.90
42085;DHT22;27746;52.228;20.890;2022-09-09T00:36:32;12.60;99.90
42085;DHT22;27746;52.228;20.890;2022-09-09T00:39:01;12.60;99.90
42085;DHT22;27746;52.228;20.890;2022-09-09T00:41:37;12.60;99.90
42085;DHT22;27746;52.228;20.890;2022-09-09T00:44:18;12.50;99.90
42085;DHT22;27746;52.228;20.890;2022-09-09T00:47:11;12.50;99.90
42085;DHT22;27746;52.228;20.890;2022-09-09T00:49:48;12.40;99.90
42085;DHT22;27746;52.228;20.890;2022-09-09T00:52:26;12.40;99.90
42085;DHT22;27746;52.228;20.890;2022-09-09T00:55:03;12.40;99.90
42085;DHT22;27746;52.228;20.890;2022-09-09T00:57:32;12.30;99.90
42085;DHT22;27746;52.228;20.890;2022-09-09T01:00:17;12.40;99.90
42085;DHT22;27746;52.228;20.890;2022-09-09T01:05:37;12.30;99.90
42085;DHT22;27746;52.228;20.890;2022-09-09T01:08:16;12.30;99.90
42085;DHT22;27746;52.228;20.890;2022-09-09T01:10:50;12.30;99.90
42085;DHT22;27746;52.228;20.890;2022-09-09T01:13:25;12.30;99.90
42085;DHT22;27746;52.228;20.890;2022-09-09T01:15:52;12.20;99.90
42085;DHT22;27746;52.228;20.890;2022-09-09T01:18:21;12.20;99.90
42085;DHT22;27746;52.228;20.890;2022-09-09T01:20:55;12.20;99.90
42085;DHT22;27746;52.228;20.890;2022-09-09T01:23:40;12.20;99.90
42085;DHT22;27746;52.228;20.890;2022-09-09T01:26:29;12.20;99.90
42085;DHT22;27746;52.228;20.890;2022-09-09T01:28:57;12.20;99.90
42085;DHT22;27746;52.228;20.890;2022-09-09T01:31:28;12.20;99.90
42085;DHT22;27746;52.228;20.890;2022-09-09T01:33:56;12.20;99.90
42085;DHT22;27746;52.228;20.890;2022-09-09T01:36:29;12.10;99.90
42085;DHT22;27746;52.228;20.890;2022-09-09T01:38:59;12.20;99.90
42085;DHT22;27746;52.228;20.890;2022-09-09T01:41:26;12.20;99.90
42085;DHT22;27746;52.228;20.890;2022-09-09T01:43:54;12.20;99.90
42085;DHT22;27746;52.228;20.890;2022-09-09T01:46:22;12.10;99.90
42085;DHT22;27746;52.228;20.890;2022-09-09T01:48:50;12.10;99.90
42085;DHT22;27746;52.228;20.890;2022-09-09T01:51:18;12.10;99.90
42085;DHT22;27746;52.228;20.890;2022-09-09T01:53:45;12.10;99.90
42085;DHT22;27746;52.228;20.890;2022-09-09T01:56:21;12.20;99.90
42085;DHT22;27746;52.228;20.890;2022-09-09T01:59:12;12.10;99.90
42085;DHT22;27746;52.228;20.890;2022-09-09T02:01:49;12.10;99.90
42085;DHT22;27746;52.228;20.890;2022-09-09T02:04:27;12.20;99.90
42085;DHT22;27746;52.228;20.890;2022-09-09T02:06:57;12.10;99.90
42085;DHT22;27746;52.228;20.890;2022-09-09T02:09:26;12.10;99.90
42085;DHT22;27746;52.228;20.890;2022-09-09T02:11:59;12.10;99.90
42085;DHT22;27746;52.228;20.890;2022-09-09T02:14:34;12.10;99.90
42085;DHT22;27746;52.228;20.890;2022-09-09T02:17:08;12.10;99.90
42085;DHT22;27746;52.228;20.890;2022-09-09T02:19:39;12.10;99.90
42085;DHT22;27746;52.228;20.890;2022-09-09T02:22:07;12.10;99.90
42085;DHT22;27746;52.228;20.890;2022-09-09T02:24:36;12.10;99.90
42085;DHT22;27746;52.228;20.890;2022-09-09T02:27:06;12.10;99.90
42085;DHT22;27746;52.228;20.890;2022-09-09T02:29:38;12.10;99.90
42085;DHT22;27746;52.228;20.890;2022-09-09T02:32:10;12.10;99.90
42085;DHT22;27746;52.228;20.890;2022-09-09T02:34:43;12.10;99.90
42085;DHT22;27746;52.228;20.890;2022-09-09T02:37:11;12.00;99.90
42085;DHT22;27746;52.228;20.890;2022-09-09T02:39:39;12.00;99.90
42085;DHT22;27746;52.228;20.890;2022-09-09T02:42:05;12.10;99.90
42085;DHT22;27746;52.228;20.890;2022-09-09T02:44:32;12.10;99.90
42085;DHT22;27746;52.228;20.890;2022-09-09T02:47:10;12.10;99.90
42085;DHT22;27746;52.228;20.890;2022-09-09T02:49:47;12.10;99.90
42085;DHT22;27746;52.228;20.890;2022-09-09T02:52:20;12.10;99.90
42085;DHT22;27746;52.228;20.890;2022-09-09T02:54:52;12.10;99.90
42085;DHT22;27746;52.228;20.890;2022-09-09T02:57:23;12.10;99.90
42085;DHT22;27746;52.228;20.890;2022-09-09T02:59:53;12.10;99.90
42085;DHT22;27746;52.228;20.890;2022-09-09T03:02:24;12.10;99.90
42085;DHT22;27746;52.228;20.890;2022-09-09T03:04:51;12.10;99.90
42085;DHT22;27746;52.228;20.890;2022-09-09T03:07:18;12.00;99.90
42085;DHT22;27746;52.228;20.890;2022-09-09T03:09:45;12.00;99.90
42085;DHT22;27746;52.228;20.890;2022-09-09T03:12:12;12.00;99.90
42085;DHT22;27746;52.228;20.890;2022-09-09T03:14:39;12.00;99.90
42085;DHT22;27746;52.228;20.890;2022-09-09T03:17:06;12.00;99.90
42085;DHT22;27746;52.228;20.890;2022-09-09T03:19:35;12.00;99.90
42085;DHT22;27746;52.228;20.890;2022-09-09T03:22:03;12.00;99.90
42085;DHT22;27746;52.228;20.890;2022-09-09T03:24:30;12.00;99.90
42085;DHT22;27746;52.228;20.890;2022-09-09T03:26:57;12.00;99.90
42085;DHT22;27746;52.228;20.890;2022-09-09T03:29:24;12.00;99.90
42085;DHT22;27746;52.228;20.890;2022-09-09T03:31:50;12.00;99.90
42085;DHT22;27746;52.228;20.890;2022-09-09T03:34:17;12.00;99.90
42085;DHT22;27746;52.228;20.890;2022-09-09T03:36:45;12.00;99.90
42085;DHT22;27746;52.228;20.890;2022-09-09T03:39:14;12.00;99.90
42085;DHT22;27746;52.228;20.890;2022-09-09T03:41:40;12.00;99.90
42085;DHT22;27746;52.228;20.890;2022-09-09T03:44:07;12.00;99.90
42085;DHT22;27746;52.228;20.890;2022-09-09T03:46:34;12.00;99.90
42085;DHT22;27746;52.228;20.890;2022-09-09T03:49:01;12.00;99.90
42085;DHT22;27746;52.228;20.890;2022-09-09T03:51:27;12.00;99.90
42085;DHT22;27746;52.228;20.890;2022-09-09T03:53:56;12.00;99.90
42085;DHT22;27746;52.228;20.890;2022-09-09T03:56:24;12.00;99.90
42085;DHT22;27746;52.228;20.890;2022-09-09T03:58:51;12.10;99.90
42085;DHT22;27746;52.228;20.890;2022-09-09T04:01:18;12.10;99.90
42085;DHT22;27746;52.228;20.890;2022-09-09T04:03:45;12.10;99.90
42085;DHT22;27746;52.228;20.890;2022-09-09T04:06:12;12.10;99.90
42085;DHT22;27746;52.228;20.890;2022-09-09T04:08:40;12.10;99.90
42085;DHT22;27746;52.228;20.890;2022-09-09T04:11:08;12.10;99.90
42085;DHT22;27746;52.228;20.890;2022-09-09T04:13:36;12.00;99.90
42085;DHT22;27746;52.228;20.890;2022-09-09T04:16:05;12.10;99.90
42085;DHT22;27746;52.228;20.890;2022-09-09T04:18:31;12.10;99.90
42085;DHT22;27746;52.228;20.890;2022-09-09T04:20:59;12.10;99.90
42085;DHT22;27746;52.228;20.890;2022-09-09T04:23:27;12.10;99.90
42085;DHT22;27746;52.228;20.890;2022-09-09T04:25:56;12.00;99.90
42085;DHT22;27746;52.228;20.890;2022-09-09T04:28:26;12.10;99.90
42085;DHT22;27746;52.228;20.890;2022-09-09T04:30:53;12.10;99.90
42085;DHT22;27746;52.228;20.890;2022-09-09T04:33:20;12.10;99.90
42085;DHT22;27746;52.228;20.890;2022-09-09T04:35:49;12.10;99.90
42085;DHT22;27746;52.228;20.890;2022-09-09T04:38:16;12.10;99.90
42085;DHT22;27746;52.228;20.890;2022-09-09T04:40:43;12.10;99.90
42085;DHT22;27746;52.228;20.890;2022-09-09T04:43:11;12.10;99.90
42085;DHT22;27746;52.228;20.890;2022-09-09T04:45:39;12.10;99.90
42085;DHT22;27746;52.228;20.890;2022-09-09T04:48:06;12.10;99.90
42085;DHT22;27746;52.228;20.890;2022-09-09T04:50:33;12.10;99.90
42085;DHT22;27746;52.228;20.890;2022-09-09T04:53:00;12.10;99.90
42085;DHT22;27746;52.228;20.890;2022-09-09T04:55:27;12.10;99.90
42085;DHT22;27746;52.228;20.890;2022-09-09T04:57:54;12.10;99.90
42085;DHT22;27746;52.228;20.890;2022-09-09T05:00:23;12.10;99.90
42085;DHT22;27746;52.228;20.890;2022-09-09T05:02:51;12.10;99.90
42085;DHT22;27746;52.228;20.890;2022-09-09T05:05:17;12.20;99.90
42085;DHT22;27746;52.228;20.890;2022-09-09T05:07:45;12.20;99.90
42085;DHT22;27746;52.228;20.890;2022-09-09T05:10:12;12.20;99.90
42085;DHT22;27746;52.228;20.890;2022-09-09T05:12:40;12.20;99.90
42085;DHT22;27746;52.228;20.890;2022-09-09T05:15:08;12.20;99.90
42085;DHT22;27746;52.228;20.890;2022-09-09T05:17:35;12.20;99.90
42085;DHT22;27746;52.228;20.890;2022-09-09T05:20:04;12.20;99.90
42085;DHT22;27746;52.228;20.890;2022-09-09T05:22:30;12.20;99.90
42085;DHT22;27746;52.228;20.890;2022-09-09T05:24:57;12.20;99.90
42085;DHT22;27746;52.228;20.890;2022-09-09T05:27:24;12.30;99.90
42085;DHT22;27746;52.228;20.890;2022-09-09T05:29:51;12.20;99.90
42085;DHT22;27746;52.228;20.890;2022-09-09T05:32:18;12.30;99.90
42085;DHT22;27746;52.228;20.890;2022-09-09T05:34:44;12.30;99.90
42085;DHT22;27746;52.228;20.890;2022-09-09T05:37:13;12.30;99.90
42085;DHT22;27746;52.228;20.890;2022-09-09T05:39:40;12.30;99.90
42085;DHT22;27746;52.228;20.890;2022-09-09T05:42:07;12.20;99.90
42085;DHT22;27746;52.228;20.890;2022-09-09T05:44:33;12.30;99.90
42085;DHT22;27746;52.228;20.890;2022-09-09T05:47:00;12.30;99.90
42085;DHT22;27746;52.228;20.890;2022-09-09T05:49:27;12.30;99.90
42085;DHT22;27746;52.228;20.890;2022-09-09T05:51:54;12.20;99.90
42085;DHT22;27746;52.228;20.890;2022-09-09T05:54:22;12.30;99.90
42085;DHT22;27746;52.228;20.890;2022-09-09T05:56:49;12.30;99.90
42085;DHT22;27746;52.228;20.890;2022-09-09T05:59:19;12.30;99.90
42085;DHT22;27746;52.228;20.890;2022-09-09T06:01:46;12.30;99.90
42085;DHT22;27746;52.228;20.890;2022-09-09T06:04:13;12.30;99.90
42085;DHT22;27746;52.228;20.890;2022-09-09T06:06:39;12.40;99.90
42085;DHT22;27746;52.228;20.890;2022-09-09T06:09:08;12.30;99.90
42085;DHT22;27746;52.228;20.890;2022-09-09T06:11:38;12.40;99.90
42085;DHT22;27746;52.228;20.890;2022-09-09T06:14:06;12.30;99.90
42085;DHT22;27746;52.228;20.890;2022-09-09T06:16:34;12.40;99.90
42085;DHT22;27746;52.228;20.890;2022-09-09T06:19:03;12.40;99.90
42085;DHT22;27746;52.228;20.890;2022-09-09T06:21:31;12.40;99.90
42085;DHT22;27746;52.228;20.890;2022-09-09T06:23:59;12.40;99.90
42085;DHT22;27746;52.228;20.890;2022-09-09T06:26:27;12.40;99.90
42085;DHT22;27746;52.228;20.890;2022-09-09T06:28:56;12.40;99.90
42085;DHT22;27746;52.228;20.890;2022-09-09T06:31:25;12.40;99.90
42085;DHT22;27746;52.228;20.890;2022-09-09T06:33:53;12.50;99.90
42085;DHT22;27746;52.228;20.890;2022-09-09T06:36:22;12.50;99.90
42085;DHT22;27746;52.228;20.890;2022-09-09T06:38:50;12.50;99.90
42085;DHT22;27746;52.228;20.890;2022-09-09T06:41:19;12.50;99.90
42085;DHT22;27746;52.228;20.890;2022-09-09T06:43:45;12.50;99.90
42085;DHT22;27746;52.228;20.890;2022-09-09T06:46:15;12.60;99.90
42085;DHT22;27746;52.228;20.890;2022-09-09T06:48:43;12.50;99.90
42085;DHT22;27746;52.228;20.890;2022-09-09T06:51:12;12.50;99.90
42085;DHT22;27746;52.228;20.890;2022-09-09T06:53:40;12.60;99.90
42085;DHT22;27746;52.228;20.890;2022-09-09T06:56:19;12.60;99.90
42085;DHT22;27746;52.228;20.890;2022-09-09T06:58:47;12.60;99.90
42085;DHT22;27746;52.228;20.890;2022-09-09T07:01:17;12.60;99.90
42085;DHT22;27746;52.228;20.890;2022-09-09T07:03:46;12.50;99.90
42085;DHT22;27746;52.228;20.890;2022-09-09T07:06:17;12.60;99.90
42085;DHT22;27746;52.228;20.890;2022-09-09T07:08:48;12.60;99.90
42085;DHT22;27746;52.228;20.890;2022-09-09T07:11:15;12.70;99.90
42085;DHT22;27746;52.228;20.890;2022-09-09T07:13:42;12.70;99.90
42085;DHT22;27746;52.228;20.890;2022-09-09T07:16:11;12.70;99.90
42085;DHT22;27746;52.228;20.890;2022-09-09T07:18:40;12.70;99.90
42085;DHT22;27746;52.228;20.890;2022-09-09T07:21:08;12.70;99.90
42085;DHT22;27746;52.228;20.890;2022-09-09T07:23:35;12.80;99.90
42085;DHT22;27746;52.228;20.890;2022-09-09T07:26:06;12.80;99.90
42085;DHT22;27746;52.228;20.890;2022-09-09T07:28:33;12.80;99.90
42085;DHT22;27746;52.228;20.890;2022-09-09T07:31:01;12.80;99.90
42085;DHT22;27746;52.228;20.890;2022-09-09T07:33:29;12.80;99.90
42085;DHT22;27746;52.228;20.890;2022-09-09T07:36:04;12.80;99.90
42085;DHT22;27746;52.228;20.890;2022-09-09T07:38:32;12.80;99.90
42085;DHT22;27746;52.228;20.890;2022-09-09T07:41:04;12.80;99.90
42085;DHT22;27746;52.228;20.890;2022-09-09T07:43:32;12.90;99.90
42085;DHT22;27746;52.228;20.890;2022-09-09T07:46:00;12.90;99.90
42085;DHT22;27746;52.228;20.890;2022-09-09T07:48:28;13.00;99.90
42085;DHT22;27746;52.228;20.890;2022-09-09T07:51:05;13.10;99.90
42085;DHT22;27746;52.228;20.890;2022-09-09T07:53:33;13.10;99.90
42085;DHT22;27746;52.228;20.890;2022-09-09T07:56:03;13.20;99.90
42085;DHT22;27746;52.228;20.890;2022-09-09T07:58:32;13.10;99.90
42085;DHT22;27746;52.228;20.890;2022-09-09T08:00:58;13.20;99.90
42085;DHT22;27746;52.228;20.890;2022-09-09T08:03:25;13.20;99.90
42085;DHT22;27746;52.228;20.890;2022-09-09T08:05:52;13.20;99.90
42085;DHT22;27746;52.228;20.890;2022-09-09T08:08:20;13.20;99.90
42085;DHT22;27746;52.228;20.890;2022-09-09T08:10:47;13.30;99.90
42085;DHT22;27746;52.228;20.890;2022-09-09T08:13:13;13.30;99.90
42085;DHT22;27746;52.228;20.890;2022-09-09T08:15:41;13.30;99.90
42085;DHT22;27746;52.228;20.890;2022-09-09T08:18:08;13.30;99.90
42085;DHT22;27746;52.228;20.890;2022-09-09T08:20:36;13.30;99.90
42085;DHT22;27746;52.228;20.890;2022-09-09T08:23:03;13.40;99.90
42085;DHT22;27746;52.228;20.890;2022-09-09T08:25:31;13.40;99.90
42085;DHT22;27746;52.228;20.890;2022-09-09T08:28:00;13.30;99.90
42085;DHT22;27746;52.228;20.890;2022-09-09T08:30:27;13.40;99.90
42085;DHT22;27746;52.228;20.890;2022-09-09T08:32:53;13.40;99.90
42085;DHT22;27746;52.228;20.890;2022-09-09T08:35:20;13.40;99.90
42085;DHT22;27746;52.228;20.890;2022-09-09T08:37:47;13.40;99.90
42085;DHT22;27746;52.228;20.890;2022-09-09T08:40:22;13.40;99.90
42085;DHT22;27746;52.228;20.890;2022-09-09T08:42:57;13.40;99.90
42085;DHT22;27746;52.228;20.890;2022-09-09T08:45:33;13.40;99.90
42085;DHT22;27746;52.228;20.890;2022-09-09T08:48:14;13.40;99.90
42085;DHT22;27746;52.228;20.890;2022-09-09T08:50:44;13.50;99.90
42085;DHT22;27746;52.228;20.890;2022-09-09T08:53:17;13.50;99.90
42085;DHT22;27746;52.228;20.890;2022-09-09T08:55:48;13.60;99.90
42085;DHT22;27746;52.228;20.890;2022-09-09T08:58:18;13.60;99.90
42085;DHT22;27746;52.228;20.890;2022-09-09T09:01:02;13.60;99.90
42085;DHT22;27746;52.228;20.890;2022-09-09T09:03:37;13.50;99.90
42085;DHT22;27746;52.228;20.890;2022-09-09T09:06:18;13.60;99.90
42085;DHT22;27746;52.228;20.890;2022-09-09T09:08:52;13.60;99.90
42085;DHT22;27746;52.228;20.890;2022-09-09T09:11:22;13.60;99.90
42085;DHT22;27746;52.228;20.890;2022-09-09T09:13:52;13.70;99.90
42085;DHT22;27746;52.228;20.890;2022-09-09T09:16:25;13.60;99.90
42085;DHT22;27746;52.228;20.890;2022-09-09T09:18:53;13.60;99.90
42085;DHT22;27746;52.228;20.890;2022-09-09T09:21:28;13.70;99.90
42085;DHT22;27746;52.228;20.890;2022-09-09T09:24:00;13.70;99.90
42085;DHT22;27746;52.228;20.890;2022-09-09T09:26:32;13.70;99.90
42085;DHT22;27746;52.228;20.890;2022-09-09T09:29:08;13.70;99.90
42085;DHT22;27746;52.228;20.890;2022-09-09T09:31:37;13.70;99.90
42085;DHT22;27746;52.228;20.890;2022-09-09T09:34:04;13.80;99.90
42085;DHT22;27746;52.228;20.890;2022-09-09T09:36:37;13.80;99.90
42085;DHT22;27746;52.228;20.890;2022-09-09T09:39:05;13.80;99.90
42085;DHT22;27746;52.228;20.890;2022-09-09T09:41:34;13.80;99.90
42085;DHT22;27746;52.228;20.890;2022-09-09T09:44:03;13.90;99.90
42085;DHT22;27746;52.228;20.890;2022-09-09T09:46:32;13.80;99.90
42085;DHT22;27746;52.228;20.890;2022-09-09T09:49:00;13.90;99.90
42085;DHT22;27746;52.228;20.890;2022-09-09T09:51:29;13.90;99.90
42085;DHT22;27746;52.228;20.890;2022-09-09T09:54:15;13.90;99.90
42085;DHT22;27746;52.228;20.890;2022-09-09T09:56:45;13.90;99.90
42085;DHT22;27746;52.228;20.890;2022-09-09T09:59:22;13.90;99.90
42085;DHT22;27746;52.228;20.890;2022-09-09T10:01:49;13.80;99.90
42085;DHT22;27746;52.228;20.890;2022-09-09T10:04:17;13.90;99.90
42085;DHT22;27746;52.228;20.890;2022-09-09T10:06:46;13.90;99.90
42085;DHT22;27746;52.228;20.890;2022-09-09T10:09:22;14.00;99.90
42085;DHT22;27746;52.228;20.890;2022-09-09T10:11:55;14.00;99.90
42085;DHT22;27746;52.228;20.890;2022-09-09T10:14:29;14.10;99.90
42085;DHT22;27746;52.228;20.890;2022-09-09T10:17:15;14.10;99.90
42085;DHT22;27746;52.228;20.890;2022-09-09T10:19:53;14.20;99.90
42085;DHT22;27746;52.228;20.890;2022-09-09T10:22:26;14.20;99.90
42085;DHT22;27746;52.228;20.890;2022-09-09T10:27:52;14.20;99.90
42085;DHT22;27746;52.228;20.890;2022-09-09T10:30:25;14.20;99.90
42085;DHT22;27746;52.228;20.890;2022-09-09T10:32:59;14.20;99.90
42085;DHT22;27746;52.228;20.890;2022-09-09T10:35:30;14.20;99.90
42085;DHT22;27746;52.228;20.890;2022-09-09T10:38:21;14.20;99.90
42085;DHT22;27746;52.228;20.890;2022-09-09T10:41:12;14.20;99.90
42085;DHT22;27746;52.228;20.890;2022-09-09T10:43:55;14.30;99.90
42085;DHT22;27746;52.228;20.890;2022-09-09T10:46:37;14.30;99.90
42085;DHT22;27746;52.228;20.890;2022-09-09T10:49:18;14.30;99.90
42085;DHT22;27746;52.228;20.890;2022-09-09T10:51:53;14.30;99.90
42085;DHT22;27746;52.228;20.890;2022-09-09T10:54:31;14.40;99.90
42085;DHT22;27746;52.228;20.890;2022-09-09T10:57:04;14.40;99.90
42085;DHT22;27746;52.228;20.890;2022-09-09T10:59:33;14.40;99.90
42085;DHT22;27746;52.228;20.890;2022-09-09T11:02:10;14.30;99.90
42085;DHT22;27746;52.228;20.890;2022-09-09T11:04:43;14.40;99.90
42085;DHT22;27746;52.228;20.890;2022-09-09T11:07:14;14.40;99.90
42085;DHT22;27746;52.228;20.890;2022-09-09T11:09:49;14.30;99.90
42085;DHT22;27746;52.228;20.890;2022-09-09T11:12:19;14.30;99.90
42085;DHT22;27746;52.228;20.890;2022-09-09T11:14:48;14.30;99.90
42085;DHT22;27746;52.228;20.890;2022-09-09T11:17:21;14.30;99.90
42085;DHT22;27746;52.228;20.890;2022-09-09T11:19:50;14.30;99.90
42085;DHT22;27746;52.228;20.890;2022-09-09T11:22:25;14.30;99.90
42085;DHT22;27746;52.228;20.890;2022-09-09T11:24:58;14.40;99.90
42085;DHT22;27746;52.228;20.890;2022-09-09T11:27:31;14.40;99.90
42085;DHT22;27746;52.228;20.890;2022-09-09T11:30:14;14.40;99.90
42085;DHT22;27746;52.228;20.890;2022-09-09T11:33:18;14.50;99.90
42085;DHT22;27746;52.228;20.890;2022-09-09T11:36:01;14.40;99.90
42085;DHT22;27746;52.228;20.890;2022-09-09T11:38:37;14.50;99.90
42085;DHT22;27746;52.228;20.890;2022-09-09T11:41:10;14.50;99.90
42085;DHT22;27746;52.228;20.890;2022-09-09T11:43:40;14.50;99.90
42085;DHT22;27746;52.228;20.890;2022-09-09T11:46:08;14.50;99.90
42085;DHT22;27746;52.228;20.890;2022-09-09T11:48:38;14.60;99.90
42085;DHT22;27746;52.228;20.890;2022-09-09T11:51:10;14.50;99.90
42085;DHT22;27746;52.228;20.890;2022-09-09T11:53:48;14.60;99.90
42085;DHT22;27746;52.228;20.890;2022-09-09T11:56:25;14.60;99.90
42085;DHT22;27746;52.228;20.890;2022-09-09T11:58:58;14.60;99.90
42085;DHT22;27746;52.228;20.890;2022-09-09T12:01:38;14.60;99.90
42085;DHT22;27746;52.228;20.890;2022-09-09T12:04:27;14.70;99.90
42085;DHT22;27746;52.228;20.890;2022-09-09T12:06:58;14.70;99.90
42085;DHT22;27746;52.228;20.890;2022-09-09T12:09:43;14.70;99.90
42085;DHT22;27746;52.228;20.890;2022-09-09T12:12:25;14.70;99.90
42085;DHT22;27746;52.228;20.890;2022-09-09T12:14:58;14.80;99.90
42085;DHT22;27746;52.228;20.890;2022-09-09T12:17:26;14.70;99.90
42085;DHT22;27746;52.228;20.890;2022-09-09T12:20:11;14.70;99.90
42085;DHT22;27746;52.228;20.890;2022-09-09T12:22:41;14.60;99.90
42085;DHT22;27746;52.228;20.890;2022-09-09T12:25:18;14.60;99.90
42085;DHT22;27746;52.228;20.890;2022-09-09T12:27:55;14.50;99.90
42085;DHT22;27746;52.228;20.890;2022-09-09T12:30:29;14.60;99.90
42085;DHT22;27746;52.228;20.890;2022-09-09T12:33:07;14.60;99.90
42085;DHT22;27746;52.228;20.890;2022-09-09T12:35:37;14.60;99.90
42085;DHT22;27746;52.228;20.890;2022-09-09T12:38:06;14.70;99.90
42085;DHT22;27746;52.228;20.890;2022-09-09T12:40:37;14.70;99.90
42085;DHT22;27746;52.228;20.890;2022-09-09T12:43:17;14.70;99.90
42085;DHT22;27746;52.228;20.890;2022-09-09T12:45:45;14.70;99.90
42085;DHT22;27746;52.228;20.890;2022-09-09T12:48:13;14.70;99.90
42085;DHT22;27746;52.228;20.890;2022-09-09T12:50:47;14.70;99.90
42085;DHT22;27746;52.228;20.890;2022-09-09T12:53:21;14.70;99.90
42085;DHT22;27746;52.228;20.890;2022-09-09T12:55:51;14.70;99.90
42085;DHT22;27746;52.228;20.890;2022-09-09T12:58:19;14.80;99.90
42085;DHT22;27746;52.228;20.890;2022-09-09T13:00:50;14.80;99.90
42085;DHT22;27746;52.228;20.890;2022-09-09T13:03:20;14.80;99.90
42085;DHT22;27746;52.228;20.890;2022-09-09T13:05:50;14.90;99.90
42085;DHT22;27746;52.228;20.890;2022-09-09T13:08:17;14.90;99.90
42085;DHT22;27746;52.228;20.890;2022-09-09T13:10:49;14.90;99.90
42085;DHT22;27746;52.228;20.890;2022-09-09T13:13:21;14.90;99.90
42085;DHT22;27746;52.228;20.890;2022-09-09T13:15:51;14.80;99.90
42085;DHT22;27746;52.228;20.890;2022-09-09T13:18:22;14.80;99.90
42085;DHT22;27746;52.228;20.890;2022-09-09T13:20:51;14.80;99.90
42085;DHT22;27746;52.228;20.890;2022-09-09T13:23:19;14.80;99.90
42085;DHT22;27746;52.228;20.890;2022-09-09T13:25:54;14.80;99.90
42085;DHT22;27746;52.228;20.890;2022-09-09T13:28:23;14.90;99.90
42085;DHT22;27746;52.228;20.890;2022-09-09T13:30:58;14.90;99.90
42085;DHT22;27746;52.228;20.890;2022-09-09T13:33:32;15.00;99.90
42085;DHT22;27746;52.228;20.890;2022-09-09T13:36:03;14.90;99.90
42085;DHT22;27746;52.228;20.890;2022-09-09T13:38:32;15.00;99.90
42085;DHT22;27746;52.228;20.890;2022-09-09T13:41:01;14.90;99.90
42085;DHT22;27746;52.228;20.890;2022-09-09T13:43:44;14.90;99.90
42085;DHT22;27746;52.228;20.890;2022-09-09T13:46:25;14.90;99.90
42085;DHT22;27746;52.228;20.890;2022-09-09T13:48:56;14.90;99.90
42085;DHT22;27746;52.228;20.890;2022-09-09T13:51:33;14.80;99.90
42085;DHT22;27746;52.228;20.890;2022-09-09T13:54:03;14.80;99.90
42085;DHT22;27746;52.228;20.890;2022-09-09T13:56:31;14.80;99.90
42085;DHT22;27746;52.228;20.890;2022-09-09T13:58:58;14.80;99.90
42085;DHT22;27746;52.228;20.890;2022-09-09T14:01:25;14.80;99.90
42085;DHT22;27746;52.228;20.890;2022-09-09T14:03:53;14.70;99.90
42085;DHT22;27746;52.228;20.890;2022-09-09T14:06:19;14.60;99.90
42085;DHT22;27746;52.228;20.890;2022-09-09T14:08:49;14.60;99.90
42085;DHT22;27746;52.228;20.890;2022-09-09T14:11:17;14.50;99.90
42085;DHT22;27746;52.228;20.890;2022-09-09T14:13:44;14.50;99.90
42085;DHT22;27746;52.228;20.890;2022-09-09T14:16:12;14.50;99.90
42085;DHT22;27746;52.228;20.890;2022-09-09T14:18:39;14.50;99.90
42085;DHT22;27746;52.228;20.890;2022-09-09T14:21:06;14.50;99.90
42085;DHT22;27746;52.228;20.890;2022-09-09T14:23:34;14.50;99.90
42085;DHT22;27746;52.228;20.890;2022-09-09T14:26:02;14.50;99.90
42085;DHT22;27746;52.228;20.890;2022-09-09T14:28:29;14.50;99.90
42085;DHT22;27746;52.228;20.890;2022-09-09T14:30:59;14.50;99.90
42085;DHT22;27746;52.228;20.890;2022-09-09T14:33:26;14.50;99.90
42085;DHT22;27746;52.228;20.890;2022-09-09T14:35:56;14.50;99.90
42085;DHT22;27746;52.228;20.890;2022-09-09T14:38:22;14.50;99.90
42085;DHT22;27746;52.228;20.890;2022-09-09T14:40:49;14.50;99.90
42085;DHT22;27746;52.228;20.890;2022-09-09T14:43:17;14.60;99.90
42085;DHT22;27746;52.228;20.890;2022-09-09T14:45:44;14.50;99.90
42085;DHT22;27746;52.228;20.890;2022-09-09T14:48:12;14.50;99.90
42085;DHT22;27746;52.228;20.890;2022-09-09T14:50:40;14.50;99.90
42085;DHT22;27746;52.228;20.890;2022-09-09T14:53:06;14.50;99.90
42085;DHT22;27746;52.228;20.890;2022-09-09T14:55:34;14.50;99.90
42085;DHT22;27746;52.228;20.890;2022-09-09T14:58:04;14.60;99.90
42085;DHT22;27746;52.228;20.890;2022-09-09T15:00:33;14.50;99.90
42085;DHT22;27746;52.228;20.890;2022-09-09T15:03:00;14.50;99.90
42085;DHT22;27746;52.228;20.890;2022-09-09T15:05:26;14.50;99.90
42085;DHT22;27746;52.228;20.890;2022-09-09T15:07:53;14.50;99.90
42085;DHT22;27746;52.228;20.890;2022-09-09T15:10:20;14.50;99.90
42085;DHT22;27746;52.228;20.890;2022-09-09T15:12:47;14.50;99.90
42085;DHT22;27746;52.228;20.890;2022-09-09T15:15:15;14.60;99.90
42085;DHT22;27746;52.228;20.890;2022-09-09T15:17:44;14.50;99.90
42085;DHT22;27746;52.228;20.890;2022-09-09T15:20:10;14.60;99.90
42085;DHT22;27746;52.228;20.890;2022-09-09T15:22:37;14.70;99.90
42085;DHT22;27746;52.228;20.890;2022-09-09T15:25:06;14.70;99.90
42085;DHT22;27746;52.228;20.890;2022-09-09T15:27:33;14.60;99.90
42085;DHT22;27746;52.228;20.890;2022-09-09T15:30:02;14.70;99.90
42085;DHT22;27746;52.228;20.890;2022-09-09T15:32:29;14.70;99.90
42085;DHT22;27746;52.228;20.890;2022-09-09T15:34:57;14.70;99.90
42085;DHT22;27746;52.228;20.890;2022-09-09T15:37:23;14.70;99.90
42085;DHT22;27746;52.228;20.890;2022-09-09T15:39:50;14.80;99.90
42085;DHT22;27746;52.228;20.890;2022-09-09T15:42:17;14.80;99.90